sensor_id;sensor_type;location;lat;lon;timestamp;P1;durP1;ratioP1;P2;durP2;ratioP2
8642;SDS011;4359;49.358;11.256;2022-10-15T00:01:42;10.73;;;5.20;;
8642;SDS011;4359;49.358;11.256;2022-10-15T00:04:07;9.00;;;5.43;;
8642;SDS011;4359;49.358;11.256;2022-10-15T00:06:33;11.35;;;5.53;;
8642;SDS011;4359;49.358;11.256;2022-10-15T00:08:59;10.68;;;4.72;;
8642;SDS011;4359;49.358;11.256;2022-10-15T00:11:26;8.00;;;5.03;;
8642;SDS011;4359;49.358;11.256;2022-10-15T00:13:53;7.07;;;4.65;;
8642;SDS011;4359;49.358;11.256;2022-10-15T00:16:22;7.13;;;4.68;;
8642;SDS011;4359;49.358;11.256;2022-10-15T00:18:49;5.88;;;4.43;;
8642;SDS011;4359;49.358;11.256;2022-10-15T00:21:16;6.95;;;4.60;;
8642;SDS011;4359;49.358;11.256;2022-10-15T00:23:45;7.53;;;4.38;;
8642;SDS011;4359;49.358;11.256;2022-10-15T00:26:19;6.97;;;4.50;;
8642;SDS011;4359;49.358;11.256;2022-10-15T00:28:47;9.50;;;4.47;;
8642;SDS011;4359;49.358;11.256;2022-10-15T00:31:15;7.55;;;4.72;;
8642;SDS011;4359;49.358;11.256;2022-10-15T00:33:42;8.85;;;4.95;;
8642;SDS011;4359;49.358;11.256;2022-10-15T00:36:13;5.88;;;4.32;;
8642;SDS011;4359;49.358;11.256;2022-10-15T00:38:43;9.35;;;4.70;;
8642;SDS011;4359;49.358;11.256;2022-10-15T00:41:17;5.20;;;4.15;;
8642;SDS011;4359;49.358;11.256;2022-10-15T00:43:48;7.03;;;4.25;;
8642;SDS011;4359;49.358;11.256;2022-10-15T00:46:21;7.97;;;4.22;;
8642;SDS011;4359;49.358;11.256;2022-10-15T00:48:57;5.47;;;4.10;;
8642;SDS011;4359;49.358;11.256;2022-10-15T00:51:31;6.82;;;3.95;;
8642;SDS011;4359;49.358;11.256;2022-10-15T00:54:00;9.43;;;4.53;;
8642;SDS011;4359;49.358;11.256;2022-10-15T00:56:26;6.45;;;3.88;;
8642;SDS011;4359;49.358;11.256;2022-10-15T00:58:55;7.03;;;4.00;;
8642;SDS011;4359;49.358;11.256;2022-10-15T01:01:21;6.90;;;3.72;;
8642;SDS011;4359;49.358;11.256;2022-10-15T01:03:49;6.40;;;3.88;;
8642;SDS011;4359;49.358;11.256;2022-10-15T01:06:16;5.47;;;3.42;;
8642;SDS011;4359;49.358;11.256;2022-10-15T01:08:42;5.82;;;3.75;;
8642;SDS011;4359;49.358;11.256;2022-10-15T01:14:06;8.13;;;3.70;;
8642;SDS011;4359;49.358;11.256;2022-10-15T01:17:04;6.63;;;3.45;;
8642;SDS011;4359;49.358;11.256;2022-10-15T01:30:51;9.52;;;3.60;;
8642;SDS011;4359;49.358;11.256;2022-10-15T01:33:26;10.00;;;3.60;;
8642;SDS011;4359;49.358;11.256;2022-10-15T01:36:04;4.38;;;3.00;;
8642;SDS011;4359;49.358;11.256;2022-10-15T01:38:50;6.68;;;3.33;;
8642;SDS011;4359;49.358;11.256;2022-10-15T01:43:56;4.97;;;3.00;;
8642;SDS011;4359;49.358;11.256;2022-10-15T01:46:27;6.32;;;3.28;;
8642;SDS011;4359;49.358;11.256;2022-10-15T01:48:59;4.93;;;2.70;;
8642;SDS011;4359;49.358;11.256;2022-10-15T01:51:27;7.63;;;3.22;;
8642;SDS011;4359;49.358;11.256;2022-10-15T01:53:55;12.45;;;3.13;;
8642;SDS011;4359;49.358;11.256;2022-10-15T01:56:23;6.43;;;3.30;;
8642;SDS011;4359;49.358;11.256;2022-10-15T01:58:51;4.63;;;2.83;;
8642;SDS011;4359;49.358;11.256;2022-10-15T02:01:19;8.43;;;3.10;;
8642;SDS011;4359;49.358;11.256;2022-10-15T02:03:49;8.20;;;2.63;;
8642;SDS011;4359;49.358;11.256;2022-10-15T02:06:38;5.80;;;2.90;;
8642;SDS011;4359;49.358;11.256;2022-10-15T02:09:09;4.28;;;2.40;;
8642;SDS011;4359;49.358;11.256;2022-10-15T02:11:42;6.60;;;2.30;;
8642;SDS011;4359;49.358;11.256;2022-10-15T02:14:19;3.50;;;2.10;;
8642;SDS011;4359;49.358;11.256;2022-10-15T02:16:55;4.40;;;1.90;;
8642;SDS011;4359;49.358;11.256;2022-10-15T02:22:16;3.85;;;2.30;;
8642;SDS011;4359;49.358;11.256;2022-10-15T02:24:55;3.55;;;1.98;;
8642;SDS011;4359;49.358;11.256;2022-10-15T02:27:26;9.15;;;2.55;;
8642;SDS011;4359;49.358;11.256;2022-10-15T02:29:55;3.78;;;1.60;;
8642;SDS011;4359;49.358;11.256;2022-10-15T02:32:24;5.13;;;1.65;;
8642;SDS011;4359;49.358;11.256;2022-10-15T02:34:51;4.30;;;1.50;;
8642;SDS011;4359;49.358;11.256;2022-10-15T02:37:19;5.78;;;1.73;;
8642;SDS011;4359;49.358;11.256;2022-10-15T02:39:48;8.23;;;1.50;;
8642;SDS011;4359;49.358;11.256;2022-10-15T02:42:17;2.47;;;1.30;;
8642;SDS011;4359;49.358;11.256;2022-10-15T02:44:43;5.50;;;1.70;;
8642;SDS011;4359;49.358;11.256;2022-10-15T02:47:09;2.95;;;1.33;;
8642;SDS011;4359;49.358;11.256;2022-10-15T02:49:35;16.33;;;2.50;;
8642;SDS011;4359;49.358;11.256;2022-10-15T02:52:01;3.22;;;1.45;;
8642;SDS011;4359;49.358;11.256;2022-10-15T02:54:27;4.55;;;1.45;;
8642;SDS011;4359;49.358;11.256;2022-10-15T02:56:53;3.78;;;1.33;;
8642;SDS011;4359;49.358;11.256;2022-10-15T02:59:19;3.25;;;1.52;;
8642;SDS011;4359;49.358;11.256;2022-10-15T03:01:45;3.53;;;1.20;;
8642;SDS011;4359;49.358;11.256;2022-10-15T03:04:10;2.15;;;1.00;;
8642;SDS011;4359;49.358;11.256;2022-10-15T03:06:36;1.88;;;1.00;;
8642;SDS011;4359;49.358;11.256;2022-10-15T03:09:02;2.50;;;1.00;;
8642;SDS011;4359;49.358;11.256;2022-10-15T03:11:28;3.13;;;0.90;;
8642;SDS011;4359;49.358;11.256;2022-10-15T03:13:54;2.80;;;1.15;;
8642;SDS011;4359;49.358;11.256;2022-10-15T03:16:19;3.53;;;1.15;;
8642;SDS011;4359;49.358;11.256;2022-10-15T03:18:45;2.97;;;1.15;;
8642;SDS011;4359;49.358;11.256;2022-10-15T03:21:11;3.13;;;1.20;;
8642;SDS011;4359;49.358;11.256;2022-10-15T03:23:37;2.45;;;1.17;;
8642;SDS011;4359;49.358;11.256;2022-10-15T03:26:02;1.80;;;0.90;;
8642;SDS011;4359;49.358;11.256;2022-10-15T03:28:28;1.77;;;1.00;;
8642;SDS011;4359;49.358;11.256;2022-10-15T03:30:54;3.17;;;0.95;;
8642;SDS011;4359;49.358;11.256;2022-10-15T03:33:19;2.42;;;1.00;;
8642;SDS011;4359;49.358;11.256;2022-10-15T03:35:45;5.32;;;1.02;;
8642;SDS011;4359;49.358;11.256;2022-10-15T03:38:11;2.38;;;1.02;;
8642;SDS011;4359;49.358;11.256;2022-10-15T03:40:37;1.50;;;0.80;;
8642;SDS011;4359;49.358;11.256;2022-10-15T03:43:03;3.58;;;1.70;;
8642;SDS011;4359;49.358;11.256;2022-10-15T03:45:28;4.15;;;1.10;;
8642;SDS011;4359;49.358;11.256;2022-10-15T03:47:54;3.15;;;1.10;;
8642;SDS011;4359;49.358;11.256;2022-10-15T03:50:20;2.88;;;0.77;;
8642;SDS011;4359;49.358;11.256;2022-10-15T03:52:45;2.35;;;0.95;;
8642;SDS011;4359;49.358;11.256;2022-10-15T03:55:11;3.25;;;0.98;;
8642;SDS011;4359;49.358;11.256;2022-10-15T03:57:37;2.05;;;1.00;;
8642;SDS011;4359;49.358;11.256;2022-10-15T04:00:04;2.63;;;0.70;;
8642;SDS011;4359;49.358;11.256;2022-10-15T04:02:31;3.35;;;0.90;;
8642;SDS011;4359;49.358;11.256;2022-10-15T04:04:57;2.10;;;0.55;;
8642;SDS011;4359;49.358;11.256;2022-10-15T04:07:22;2.17;;;0.70;;
8642;SDS011;4359;49.358;11.256;2022-10-15T04:09:48;2.33;;;0.80;;
8642;SDS011;4359;49.358;11.256;2022-10-15T04:12:14;1.95;;;0.80;;
8642;SDS011;4359;49.358;11.256;2022-10-15T04:14:40;3.38;;;0.90;;
8642;SDS011;4359;49.358;11.256;2022-10-15T04:17:06;3.13;;;0.90;;
8642;SDS011;4359;49.358;11.256;2022-10-15T04:19:32;2.97;;;1.00;;
8642;SDS011;4359;49.358;11.256;2022-10-15T04:21:58;2.95;;;1.17;;
8642;SDS011;4359;49.358;11.256;2022-10-15T04:24:24;4.70;;;1.00;;
8642;SDS011;4359;49.358;11.256;2022-10-15T04:26:49;4.32;;;1.15;;
8642;SDS011;4359;49.358;11.256;2022-10-15T04:29:15;4.13;;;1.15;;
8642;SDS011;4359;49.358;11.256;2022-10-15T04:31:41;3.75;;;1.02;;
8642;SDS011;4359;49.358;11.256;2022-10-15T04:34:07;3.35;;;1.23;;
8642;SDS011;4359;49.358;11.256;2022-10-15T04:36:33;2.33;;;0.80;;
8642;SDS011;4359;49.358;11.256;2022-10-15T04:38:59;4.63;;;1.42;;
8642;SDS011;4359;49.358;11.256;2022-10-15T04:41:25;2.58;;;0.90;;
8642;SDS011;4359;49.358;11.256;2022-10-15T04:43:51;2.22;;;0.80;;
8642;SDS011;4359;49.358;11.256;2022-10-15T04:46:17;1.40;;;0.60;;
8642;SDS011;4359;49.358;11.256;2022-10-15T04:48:44;2.25;;;1.15;;
8642;SDS011;4359;49.358;11.256;2022-10-15T04:51:16;1.77;;;0.85;;
8642;SDS011;4359;49.358;11.256;2022-10-15T04:53:44;3.05;;;0.82;;
8642;SDS011;4359;49.358;11.256;2022-10-15T04:56:11;2.22;;;0.80;;
8642;SDS011;4359;49.358;11.256;2022-10-15T04:58:40;4.13;;;1.02;;
8642;SDS011;4359;49.358;11.256;2022-10-15T05:01:08;4.32;;;1.10;;
8642;SDS011;4359;49.358;11.256;2022-10-15T05:03:39;1.77;;;0.68;;
8642;SDS011;4359;49.358;11.256;2022-10-15T05:06:07;2.20;;;0.90;;
8642;SDS011;4359;49.358;11.256;2022-10-15T05:08:35;1.83;;;0.75;;
8642;SDS011;4359;49.358;11.256;2022-10-15T05:11:05;2.97;;;1.25;;
8642;SDS011;4359;49.358;11.256;2022-10-15T05:13:33;1.95;;;1.00;;
8642;SDS011;4359;49.358;11.256;2022-10-15T05:18:38;2.17;;;1.00;;
8642;SDS011;4359;49.358;11.256;2022-10-15T05:21:05;4.07;;;1.20;;
8642;SDS011;4359;49.358;11.256;2022-10-15T05:23:31;3.83;;;0.90;;
8642;SDS011;4359;49.358;11.256;2022-10-15T05:26:00;2.00;;;0.90;;
8642;SDS011;4359;49.358;11.256;2022-10-15T05:28:26;3.15;;;1.00;;
8642;SDS011;4359;49.358;11.256;2022-10-15T05:30:52;1.48;;;0.73;;
8642;SDS011;4359;49.358;11.256;2022-10-15T05:33:18;1.55;;;0.60;;
8642;SDS011;4359;49.358;11.256;2022-10-15T05:35:43;2.08;;;0.90;;
8642;SDS011;4359;49.358;11.256;2022-10-15T05:38:09;3.40;;;0.90;;
8642;SDS011;4359;49.358;11.256;2022-10-15T05:40:34;2.40;;;0.82;;
8642;SDS011;4359;49.358;11.256;2022-10-15T05:43:00;3.03;;;1.02;;
8642;SDS011;4359;49.358;11.256;2022-10-15T05:45:26;2.40;;;0.80;;
8642;SDS011;4359;49.358;11.256;2022-10-15T05:47:54;3.25;;;0.88;;
8642;SDS011;4359;49.358;11.256;2022-10-15T05:50:21;1.50;;;0.70;;
8642;SDS011;4359;49.358;11.256;2022-10-15T05:52:47;5.00;;;0.80;;
8642;SDS011;4359;49.358;11.256;2022-10-15T05:55:13;2.42;;;0.90;;
8642;SDS011;4359;49.358;11.256;2022-10-15T05:57:39;3.33;;;0.90;;
8642;SDS011;4359;49.358;11.256;2022-10-15T06:00:06;1.95;;;0.80;;
8642;SDS011;4359;49.358;11.256;2022-10-15T06:02:33;1.85;;;0.80;;
8642;SDS011;4359;49.358;11.256;2022-10-15T06:04:58;1.75;;;0.90;;
8642;SDS011;4359;49.358;11.256;2022-10-15T06:07:24;4.70;;;1.95;;
8642;SDS011;4359;49.358;11.256;2022-10-15T06:09:50;1.70;;;0.80;;
8642;SDS011;4359;49.358;11.256;2022-10-15T06:12:16;1.50;;;0.80;;
8642;SDS011;4359;49.358;11.256;2022-10-15T06:14:42;3.63;;;1.10;;
8642;SDS011;4359;49.358;11.256;2022-10-15T06:17:07;4.43;;;0.90;;
8642;SDS011;4359;49.358;11.256;2022-10-15T06:19:33;2.53;;;0.90;;
8642;SDS011;4359;49.358;11.256;2022-10-15T06:21:58;3.95;;;0.98;;
8642;SDS011;4359;49.358;11.256;2022-10-15T06:24:24;1.33;;;0.60;;
8642;SDS011;4359;49.358;11.256;2022-10-15T06:26:49;5.35;;;1.40;;
8642;SDS011;4359;49.358;11.256;2022-10-15T06:29:15;3.10;;;0.90;;
8642;SDS011;4359;49.358;11.256;2022-10-15T06:31:41;2.78;;;0.95;;
8642;SDS011;4359;49.358;11.256;2022-10-15T06:34:06;1.52;;;0.80;;
8642;SDS011;4359;49.358;11.256;2022-10-15T06:36:32;2.75;;;0.88;;
8642;SDS011;4359;49.358;11.256;2022-10-15T06:38:58;1.70;;;0.80;;
8642;SDS011;4359;49.358;11.256;2022-10-15T06:41:23;1.67;;;0.70;;
8642;SDS011;4359;49.358;11.256;2022-10-15T06:43:49;1.80;;;0.88;;
8642;SDS011;4359;49.358;11.256;2022-10-15T06:46:15;2.35;;;0.75;;
8642;SDS011;4359;49.358;11.256;2022-10-15T06:48:41;2.38;;;0.80;;
8642;SDS011;4359;49.358;11.256;2022-10-15T06:51:06;3.40;;;0.90;;
8642;SDS011;4359;49.358;11.256;2022-10-15T06:53:32;2.30;;;1.00;;
8642;SDS011;4359;49.358;11.256;2022-10-15T06:55:59;2.30;;;0.95;;
8642;SDS011;4359;49.358;11.256;2022-10-15T06:58:26;3.05;;;0.90;;
8642;SDS011;4359;49.358;11.256;2022-10-15T07:00:52;3.20;;;1.00;;
8642;SDS011;4359;49.358;11.256;2022-10-15T07:03:17;2.50;;;1.20;;
8642;SDS011;4359;49.358;11.256;2022-10-15T07:05:43;2.88;;;1.17;;
8642;SDS011;4359;49.358;11.256;2022-10-15T07:08:09;2.72;;;0.98;;
8642;SDS011;4359;49.358;11.256;2022-10-15T07:10:35;1.30;;;0.80;;
8642;SDS011;4359;49.358;11.256;2022-10-15T07:13:00;3.45;;;0.88;;
8642;SDS011;4359;49.358;11.256;2022-10-15T07:15:27;3.13;;;0.68;;
8642;SDS011;4359;49.358;11.256;2022-10-15T07:17:53;1.67;;;0.80;;
8642;SDS011;4359;49.358;11.256;2022-10-15T07:20:26;7.43;;;2.03;;
8642;SDS011;4359;49.358;11.256;2022-10-15T07:22:56;2.55;;;0.80;;
8642;SDS011;4359;49.358;11.256;2022-10-15T07:25:23;1.80;;;0.80;;
8642;SDS011;4359;49.358;11.256;2022-10-15T07:27:49;3.80;;;0.90;;
8642;SDS011;4359;49.358;11.256;2022-10-15T07:30:15;3.65;;;0.90;;
8642;SDS011;4359;49.358;11.256;2022-10-15T07:32:41;1.88;;;0.70;;
8642;SDS011;4359;49.358;11.256;2022-10-15T07:35:07;1.75;;;0.80;;
8642;SDS011;4359;49.358;11.256;2022-10-15T07:37:33;9.32;;;1.10;;
8642;SDS011;4359;49.358;11.256;2022-10-15T07:39:59;2.17;;;0.70;;
8642;SDS011;4359;49.358;11.256;2022-10-15T07:42:24;3.42;;;0.70;;
8642;SDS011;4359;49.358;11.256;2022-10-15T07:44:50;3.28;;;0.90;;
8642;SDS011;4359;49.358;11.256;2022-10-15T07:47:16;3.13;;;0.63;;
8642;SDS011;4359;49.358;11.256;2022-10-15T07:49:42;6.13;;;1.25;;
8642;SDS011;4359;49.358;11.256;2022-10-15T07:52:07;2.50;;;0.60;;
8642;SDS011;4359;49.358;11.256;2022-10-15T07:54:34;2.22;;;0.50;;
8642;SDS011;4359;49.358;11.256;2022-10-15T07:57:00;1.70;;;0.65;;
8642;SDS011;4359;49.358;11.256;2022-10-15T07:59:25;5.88;;;0.55;;
8642;SDS011;4359;49.358;11.256;2022-10-15T08:01:51;3.45;;;0.60;;
8642;SDS011;4359;49.358;11.256;2022-10-15T08:04:17;3.30;;;0.40;;
8642;SDS011;4359;49.358;11.256;2022-10-15T08:06:44;2.28;;;0.45;;
8642;SDS011;4359;49.358;11.256;2022-10-15T08:09:10;1.75;;;0.40;;
8642;SDS011;4359;49.358;11.256;2022-10-15T08:11:36;2.78;;;0.40;;
8642;SDS011;4359;49.358;11.256;2022-10-15T08:14:01;1.67;;;0.47;;
8642;SDS011;4359;49.358;11.256;2022-10-15T08:16:28;4.57;;;0.50;;
8642;SDS011;4359;49.358;11.256;2022-10-15T08:18:53;1.75;;;0.40;;
8642;SDS011;4359;49.358;11.256;2022-10-15T08:21:19;2.33;;;0.40;;
8642;SDS011;4359;49.358;11.256;2022-10-15T08:23:45;3.83;;;0.43;;
8642;SDS011;4359;49.358;11.256;2022-10-15T08:26:11;4.03;;;0.57;;
8642;SDS011;4359;49.358;11.256;2022-10-15T08:28:37;2.85;;;0.40;;
8642;SDS011;4359;49.358;11.256;2022-10-15T08:31:03;2.65;;;0.68;;
8642;SDS011;4359;49.358;11.256;2022-10-15T08:33:29;0.90;;;0.30;;
8642;SDS011;4359;49.358;11.256;2022-10-15T08:35:55;1.67;;;0.50;;
8642;SDS011;4359;49.358;11.256;2022-10-15T08:38:21;1.40;;;0.45;;
8642;SDS011;4359;49.358;11.256;2022-10-15T08:40:48;1.33;;;0.50;;
8642;SDS011;4359;49.358;11.256;2022-10-15T08:43:27;2.20;;;0.40;;
8642;SDS011;4359;49.358;11.256;2022-10-15T08:45:59;3.20;;;0.77;;
8642;SDS011;4359;49.358;11.256;2022-10-15T08:48:36;1.25;;;0.47;;
8642;SDS011;4359;49.358;11.256;2022-10-15T08:53:38;2.25;;;0.50;;
8642;SDS011;4359;49.358;11.256;2022-10-15T08:56:23;2.22;;;0.63;;
8642;SDS011;4359;49.358;11.256;2022-10-15T09:01:58;4.03;;;2.65;;
8642;SDS011;4359;49.358;11.256;2022-10-15T09:04:46;4.32;;;2.42;;
8642;SDS011;4359;49.358;11.256;2022-10-15T09:07:39;4.22;;;2.58;;
8642;SDS011;4359;49.358;11.256;2022-10-15T09:13:01;1.60;;;0.80;;
8642;SDS011;4359;49.358;11.256;2022-10-15T09:15:46;1.52;;;0.60;;
8642;SDS011;4359;49.358;11.256;2022-10-15T09:18:23;2.55;;;0.65;;
8642;SDS011;4359;49.358;11.256;2022-10-15T09:20:54;4.55;;;0.70;;
8642;SDS011;4359;49.358;11.256;2022-10-15T09:23:23;1.67;;;0.45;;
8642;SDS011;4359;49.358;11.256;2022-10-15T09:25:57;2.10;;;0.60;;
8642;SDS011;4359;49.358;11.256;2022-10-15T09:31:27;1.33;;;0.50;;
8642;SDS011;4359;49.358;11.256;2022-10-15T09:34:19;3.08;;;0.70;;
8642;SDS011;4359;49.358;11.256;2022-10-15T09:36:53;2.50;;;1.02;;
8642;SDS011;4359;49.358;11.256;2022-10-15T09:44:41;3.00;;;1.20;;
8642;SDS011;4359;49.358;11.256;2022-10-15T09:47:16;2.90;;;0.80;;
8642;SDS011;4359;49.358;11.256;2022-10-15T09:49:50;4.47;;;1.50;;
8642;SDS011;4359;49.358;11.256;2022-10-15T09:52:21;1.98;;;0.75;;
8642;SDS011;4359;49.358;11.256;2022-10-15T09:54:59;2.55;;;0.60;;
8642;SDS011;4359;49.358;11.256;2022-10-15T09:57:27;1.45;;;0.60;;
8642;SDS011;4359;49.358;11.256;2022-10-15T09:59:58;5.03;;;1.10;;
8642;SDS011;4359;49.358;11.256;2022-10-15T10:02:25;5.22;;;0.45;;
8642;SDS011;4359;49.358;11.256;2022-10-15T10:04:52;3.97;;;0.43;;
8642;SDS011;4359;49.358;11.256;2022-10-15T10:07:27;1.95;;;0.50;;
8642;SDS011;4359;49.358;11.256;2022-10-15T10:09:55;1.55;;;0.60;;
8642;SDS011;4359;49.358;11.256;2022-10-15T10:12:24;5.60;;;0.68;;
8642;SDS011;4359;49.358;11.256;2022-10-15T10:14:53;3.47;;;0.60;;
8642;SDS011;4359;49.358;11.256;2022-10-15T10:17:27;2.03;;;0.60;;
8642;SDS011;4359;49.358;11.256;2022-10-15T10:22:45;6.40;;;1.00;;
8642;SDS011;4359;49.358;11.256;2022-10-15T10:27:54;1.50;;;0.60;;
8642;SDS011;4359;49.358;11.256;2022-10-15T10:30:40;1.85;;;0.77;;
8642;SDS011;4359;49.358;11.256;2022-10-15T10:33:11;4.30;;;0.70;;
8642;SDS011;4359;49.358;11.256;2022-10-15T10:35:47;4.80;;;1.10;;
8642;SDS011;4359;49.358;11.256;2022-10-15T10:41:01;2.13;;;0.70;;
8642;SDS011;4359;49.358;11.256;2022-10-15T10:43:34;1.58;;;0.70;;
8642;SDS011;4359;49.358;11.256;2022-10-15T10:46:05;3.60;;;0.80;;
8642;SDS011;4359;49.358;11.256;2022-10-15T10:48:47;2.17;;;0.60;;
8642;SDS011;4359;49.358;11.256;2022-10-15T10:51:17;3.50;;;0.60;;
8642;SDS011;4359;49.358;11.256;2022-10-15T10:56:29;2.45;;;0.77;;
8642;SDS011;4359;49.358;11.256;2022-10-15T11:01:49;1.25;;;0.50;;
8642;SDS011;4359;49.358;11.256;2022-10-15T11:04:26;4.68;;;0.60;;
8642;SDS011;4359;49.358;11.256;2022-10-15T11:07:04;1.80;;;0.40;;
8642;SDS011;4359;49.358;11.256;2022-10-15T11:19:36;1.35;;;0.50;;
8642;SDS011;4359;49.358;11.256;2022-10-15T11:36:41;12.20;;;1.98;;
8642;SDS011;4359;49.358;11.256;2022-10-15T11:39:47;2.47;;;1.60;;
8642;SDS011;4359;49.358;11.256;2022-10-15T11:47:53;0.98;;;0.30;;
8642;SDS011;4359;49.358;11.256;2022-10-15T11:55:48;1.30;;;0.47;;
8642;SDS011;4359;49.358;11.256;2022-10-15T12:01:32;1.77;;;0.57;;
8642;SDS011;4359;49.358;11.256;2022-10-15T12:04:04;3.53;;;1.05;;
8642;SDS011;4359;49.358;11.256;2022-10-15T12:06:35;2.97;;;0.77;;
8642;SDS011;4359;49.358;11.256;2022-10-15T12:09:08;5.03;;;0.60;;
8642;SDS011;4359;49.358;11.256;2022-10-15T12:11:54;4.57;;;0.70;;
8642;SDS011;4359;49.358;11.256;2022-10-15T12:14:48;1.90;;;1.10;;
8642;SDS011;4359;49.358;11.256;2022-10-15T12:20:14;4.93;;;1.00;;
8642;SDS011;4359;49.358;11.256;2022-10-15T12:22:54;3.55;;;0.60;;
8642;SDS011;4359;49.358;11.256;2022-10-15T12:30:38;4.70;;;1.30;;
8642;SDS011;4359;49.358;11.256;2022-10-15T12:35:57;4.65;;;2.00;;
8642;SDS011;4359;49.358;11.256;2022-10-15T12:38:36;5.72;;;4.05;;
8642;SDS011;4359;49.358;11.256;2022-10-15T12:41:08;2.92;;;1.70;;
8642;SDS011;4359;49.358;11.256;2022-10-15T12:43:37;6.13;;;1.75;;
8642;SDS011;4359;49.358;11.256;2022-10-15T12:46:07;1.02;;;0.40;;
8642;SDS011;4359;49.358;11.256;2022-10-15T12:48:36;1.10;;;0.50;;
8642;SDS011;4359;49.358;11.256;2022-10-15T12:53:51;2.15;;;0.50;;
8642;SDS011;4359;49.358;11.256;2022-10-15T12:56:22;2.22;;;0.52;;
8642;SDS011;4359;49.358;11.256;2022-10-15T12:58:58;1.10;;;0.55;;
8642;SDS011;4359;49.358;11.256;2022-10-15T13:01:28;1.35;;;0.55;;
8642;SDS011;4359;49.358;11.256;2022-10-15T13:04:06;2.53;;;0.63;;
8642;SDS011;4359;49.358;11.256;2022-10-15T13:06:32;3.13;;;0.65;;
8642;SDS011;4359;49.358;11.256;2022-10-15T13:16:49;1.23;;;0.50;;
8642;SDS011;4359;49.358;11.256;2022-10-15T13:19:18;2.17;;;0.70;;
8642;SDS011;4359;49.358;11.256;2022-10-15T13:21:46;2.25;;;0.77;;
8642;SDS011;4359;49.358;11.256;2022-10-15T13:24:13;2.70;;;0.43;;
8642;SDS011;4359;49.358;11.256;2022-10-15T13:26:45;3.08;;;0.73;;
8642;SDS011;4359;49.358;11.256;2022-10-15T13:29:14;4.20;;;0.70;;
8642;SDS011;4359;49.358;11.256;2022-10-15T13:31:41;4.05;;;0.60;;
8642;SDS011;4359;49.358;11.256;2022-10-15T13:34:12;3.60;;;0.60;;
8642;SDS011;4359;49.358;11.256;2022-10-15T13:36:44;1.95;;;0.60;;
8642;SDS011;4359;49.358;11.256;2022-10-15T13:39:43;2.45;;;0.57;;
8642;SDS011;4359;49.358;11.256;2022-10-15T13:42:12;4.65;;;0.80;;
8642;SDS011;4359;49.358;11.256;2022-10-15T13:44:39;7.82;;;0.80;;
8642;SDS011;4359;49.358;11.256;2022-10-15T13:47:40;19.83;;;2.47;;
8642;SDS011;4359;49.358;11.256;2022-10-15T13:52:46;1.85;;;0.70;;
8642;SDS011;4359;49.358;11.256;2022-10-15T13:55:23;2.92;;;0.82;;
8642;SDS011;4359;49.358;11.256;2022-10-15T13:58:01;2.13;;;0.55;;
8642;SDS011;4359;49.358;11.256;2022-10-15T14:00:33;3.05;;;0.57;;
8642;SDS011;4359;49.358;11.256;2022-10-15T14:05:33;6.55;;;0.63;;
8642;SDS011;4359;49.358;11.256;2022-10-15T14:07:59;4.65;;;0.52;;
8642;SDS011;4359;49.358;11.256;2022-10-15T14:10:25;8.57;;;1.08;;
8642;SDS011;4359;49.358;11.256;2022-10-15T14:12:51;2.55;;;0.90;;
8642;SDS011;4359;49.358;11.256;2022-10-15T14:18:07;1.40;;;0.60;;
8642;SDS011;4359;49.358;11.256;2022-10-15T14:20:34;1.48;;;0.50;;
8642;SDS011;4359;49.358;11.256;2022-10-15T14:23:00;5.38;;;0.80;;
8642;SDS011;4359;49.358;11.256;2022-10-15T14:25:26;1.80;;;0.32;;
8642;SDS011;4359;49.358;11.256;2022-10-15T14:27:52;3.85;;;0.47;;
8642;SDS011;4359;49.358;11.256;2022-10-15T14:30:27;2.28;;;0.50;;
8642;SDS011;4359;49.358;11.256;2022-10-15T14:32:56;4.28;;;0.70;;
8642;SDS011;4359;49.358;11.256;2022-10-15T14:37:56;2.47;;;0.50;;
8642;SDS011;4359;49.358;11.256;2022-10-15T14:40:24;1.77;;;0.63;;
8642;SDS011;4359;49.358;11.256;2022-10-15T14:47:50;1.15;;;0.40;;
8642;SDS011;4359;49.358;11.256;2022-10-15T14:50:25;3.28;;;0.88;;
8642;SDS011;4359;49.358;11.256;2022-10-15T14:52:54;3.58;;;1.30;;
8642;SDS011;4359;49.358;11.256;2022-10-15T14:57:47;2.17;;;0.50;;
8642;SDS011;4359;49.358;11.256;2022-10-15T15:00:16;2.83;;;0.95;;
8642;SDS011;4359;49.358;11.256;2022-10-15T15:03:03;1.48;;;0.60;;
8642;SDS011;4359;49.358;11.256;2022-10-15T15:05:30;1.60;;;0.47;;
8642;SDS011;4359;49.358;11.256;2022-10-15T15:08:18;2.70;;;1.10;;
8642;SDS011;4359;49.358;11.256;2022-10-15T15:10:44;2.95;;;0.60;;
8642;SDS011;4359;49.358;11.256;2022-10-15T15:13:13;2.80;;;2.33;;
8642;SDS011;4359;49.358;11.256;2022-10-15T15:15:45;7.53;;;2.00;;
8642;SDS011;4359;49.358;11.256;2022-10-15T15:18:10;7.82;;;3.20;;
8642;SDS011;4359;49.358;11.256;2022-10-15T15:20:37;6.10;;;3.88;;
8642;SDS011;4359;49.358;11.256;2022-10-15T15:23:04;5.93;;;3.47;;
8642;SDS011;4359;49.358;11.256;2022-10-15T15:25:31;3.78;;;2.70;;
8642;SDS011;4359;49.358;11.256;2022-10-15T15:27:59;4.97;;;4.40;;
8642;SDS011;4359;49.358;11.256;2022-10-15T15:30:26;7.68;;;6.68;;
8642;SDS011;4359;49.358;11.256;2022-10-15T15:32:53;8.48;;;6.57;;
8642;SDS011;4359;49.358;11.256;2022-10-15T15:38:17;5.38;;;2.65;;
8642;SDS011;4359;49.358;11.256;2022-10-15T15:40:44;4.05;;;2.35;;
8642;SDS011;4359;49.358;11.256;2022-10-15T15:43:14;4.95;;;4.03;;
8642;SDS011;4359;49.358;11.256;2022-10-15T15:45:41;4.90;;;3.83;;
8642;SDS011;4359;49.358;11.256;2022-10-15T15:48:07;4.40;;;2.30;;
8642;SDS011;4359;49.358;11.256;2022-10-15T15:50:33;4.65;;;2.20;;
8642;SDS011;4359;49.358;11.256;2022-10-15T15:52:59;5.53;;;1.95;;
8642;SDS011;4359;49.358;11.256;2022-10-15T15:55:25;3.00;;;2.13;;
8642;SDS011;4359;49.358;11.256;2022-10-15T15:57:50;6.60;;;2.13;;
8642;SDS011;4359;49.358;11.256;2022-10-15T16:00:16;2.67;;;1.80;;
8642;SDS011;4359;49.358;11.256;2022-10-15T16:02:42;3.60;;;1.50;;
8642;SDS011;4359;49.358;11.256;2022-10-15T16:05:08;4.30;;;1.90;;
8642;SDS011;4359;49.358;11.256;2022-10-15T16:07:37;4.43;;;2.10;;
8642;SDS011;4359;49.358;11.256;2022-10-15T16:10:03;7.22;;;2.42;;
8642;SDS011;4359;49.358;11.256;2022-10-15T16:12:32;2.78;;;1.30;;
8642;SDS011;4359;49.358;11.256;2022-10-15T16:14:58;7.15;;;1.00;;
8642;SDS011;4359;49.358;11.256;2022-10-15T16:17:25;2.03;;;0.70;;
8642;SDS011;4359;49.358;11.256;2022-10-15T16:19:51;1.77;;;0.60;;
8642;SDS011;4359;49.358;11.256;2022-10-15T16:22:16;3.10;;;0.80;;
8642;SDS011;4359;49.358;11.256;2022-10-15T16:24:42;3.75;;;0.80;;
8642;SDS011;4359;49.358;11.256;2022-10-15T16:27:08;2.65;;;1.00;;
8642;SDS011;4359;49.358;11.256;2022-10-15T16:29:33;6.95;;;1.35;;
8642;SDS011;4359;49.358;11.256;2022-10-15T16:31:59;3.70;;;0.90;;
8642;SDS011;4359;49.358;11.256;2022-10-15T16:34:25;3.78;;;0.68;;
8642;SDS011;4359;49.358;11.256;2022-10-15T16:36:50;5.88;;;1.00;;
8642;SDS011;4359;49.358;11.256;2022-10-15T16:39:16;4.75;;;1.00;;
8642;SDS011;4359;49.358;11.256;2022-10-15T16:41:42;3.17;;;0.88;;
8642;SDS011;4359;49.358;11.256;2022-10-15T16:44:08;1.85;;;0.65;;
8642;SDS011;4359;49.358;11.256;2022-10-15T16:46:34;2.00;;;0.68;;
8642;SDS011;4359;49.358;11.256;2022-10-15T16:49:00;4.50;;;1.15;;
8642;SDS011;4359;49.358;11.256;2022-10-15T16:51:26;3.30;;;0.77;;
8642;SDS011;4359;49.358;11.256;2022-10-15T16:53:52;4.50;;;0.95;;
8642;SDS011;4359;49.358;11.256;2022-10-15T16:56:22;2.38;;;0.70;;
8642;SDS011;4359;49.358;11.256;2022-10-15T16:58:52;4.85;;;1.30;;
8642;SDS011;4359;49.358;11.256;2022-10-15T17:01:21;6.28;;;3.53;;
8642;SDS011;4359;49.358;11.256;2022-10-15T17:03:51;3.47;;;1.42;;
8642;SDS011;4359;49.358;11.256;2022-10-15T17:06:19;5.53;;;1.80;;
8642;SDS011;4359;49.358;11.256;2022-10-15T17:08:50;14.93;;;5.82;;
8642;SDS011;4359;49.358;11.256;2022-10-15T17:11:30;8.38;;;4.15;;
8642;SDS011;4359;49.358;11.256;2022-10-15T17:13:59;22.67;;;10.13;;
8642;SDS011;4359;49.358;11.256;2022-10-15T17:16:46;20.75;;;7.85;;
8642;SDS011;4359;49.358;11.256;2022-10-15T17:19:14;12.90;;;5.45;;
8642;SDS011;4359;49.358;11.256;2022-10-15T17:21:41;7.97;;;3.15;;
8642;SDS011;4359;49.358;11.256;2022-10-15T17:24:09;5.78;;;2.72;;
8642;SDS011;4359;49.358;11.256;2022-10-15T17:26:37;8.35;;;2.63;;